createdAt,value
2023-03-24T00:01:17.706Z,11.49
2023-03-24T00:03:44.136Z,11.49
2023-03-24T00:06:11.136Z,11.49
2023-03-24T00:08:37.437Z,11.48
2023-03-24T00:11:05.665Z,11.47
2023-03-24T00:13:33.148Z,11.46
2023-03-24T00:15:59.517Z,11.46
2023-03-24T00:18:26.325Z,11.43
2023-03-24T00:20:53.051Z,11.41
2023-03-24T00:23:19.382Z,11.39
2023-03-24T00:25:45.786Z,11.39
2023-03-24T00:28:12.088Z,11.39
2023-03-24T00:30:40.939Z,11.38
2023-03-24T00:33:07.328Z,11.35
2023-03-24T00:35:33.740Z,11.34
2023-03-24T00:38:00.116Z,11.33
2023-03-24T00:40:27.273Z,11.30
2023-03-24T00:42:53.612Z,11.27
2023-03-24T00:45:20.873Z,11.24
2023-03-24T00:47:48.067Z,11.23
2023-03-24T00:50:15.901Z,11.22
2023-03-24T00:52:42.699Z,11.21
2023-03-24T00:55:10.424Z,11.21
2023-03-24T00:57:37.038Z,11.19
2023-03-24T01:00:05.374Z,11.19
2023-03-24T01:02:31.734Z,11.18
2023-03-24T01:04:58.869Z,11.18
2023-03-24T01:07:26.712Z,11.18
2023-03-24T01:09:53.419Z,11.19
2023-03-24T01:12:20.183Z,11.20
2023-03-24T01:14:46.578Z,11.20
2023-03-24T01:17:12.931Z,11.20
2023-03-24T01:19:39.296Z,11.18
2023-03-24T01:22:05.779Z,11.17
2023-03-24T01:24:32.656Z,11.16
2023-03-24T01:26:59.142Z,11.16
2023-03-24T01:29:25.445Z,11.15
2023-03-24T01:31:51.934Z,11.15
2023-03-24T01:34:18.288Z,11.14
2023-03-24T01:36:44.684Z,11.15
2023-03-24T01:39:11.085Z,11.15
2023-03-24T01:41:39.143Z,11.15
2023-03-24T01:44:27.366Z,11.14
2023-03-24T01:46:54.438Z,11.14
2023-03-24T01:49:21.978Z,11.12
2023-03-24T01:51:50.106Z,11.10
2023-03-24T01:54:16.452Z,11.08
2023-03-24T01:56:45.312Z,11.09
2023-03-24T01:59:17.286Z,11.07
2023-03-24T02:01:52.998Z,11.04
2023-03-24T02:04:44.277Z,11.01
2023-03-24T02:07:37.626Z,11.00
2023-03-24T02:10:12.785Z,11.00
2023-03-24T02:12:40.075Z,11.01
2023-03-24T02:15:07.538Z,11.01
2023-03-24T02:17:34.740Z,11.02
2023-03-24T02:20:20.053Z,11.03
2023-03-24T02:23:05.500Z,11.05
2023-03-24T02:25:55.097Z,11.06
2023-03-24T02:28:30.660Z,11.07
2023-03-24T02:31:12.632Z,11.07
2023-03-24T02:33:53.559Z,11.08
2023-03-24T02:36:43.322Z,11.07
2023-03-24T02:39:28.259Z,11.07
2023-03-24T02:41:57.683Z,11.08
2023-03-24T02:44:53.677Z,11.08
2023-03-24T02:47:32.323Z,11.10
2023-03-24T02:49:58.629Z,11.12
2023-03-24T02:52:46.588Z,11.13
2023-03-24T02:55:19.929Z,11.12
2023-03-24T02:57:53.580Z,11.13
2023-03-24T03:00:44.270Z,11.16
2023-03-24T03:03:22.617Z,11.17
2023-03-24T03:05:55.856Z,11.16
2023-03-24T03:08:26.669Z,11.15
2023-03-24T03:10:54.277Z,11.14
2023-03-24T03:13:26.133Z,11.15
2023-03-24T03:15:55.777Z,11.14
2023-03-24T03:18:33.476Z,11.13
2023-03-24T03:21:03.928Z,11.12
2023-03-24T03:23:38.971Z,11.12
2023-03-24T03:26:09.422Z,11.11
2023-03-24T03:28:37.751Z,11.09
2023-03-24T03:31:10.105Z,11.07
2023-03-24T03:33:39.752Z,11.04
2023-03-24T03:36:08.956Z,11.03
2023-03-24T03:38:41.551Z,11.02
2023-03-24T03:41:07.961Z,11.00
2023-03-24T03:43:35.755Z,10.97
2023-03-24T03:46:03.401Z,10.94
2023-03-24T03:48:33.448Z,10.90
2023-03-24T03:51:12.384Z,10.86
2023-03-24T03:53:56.897Z,10.83
2023-03-24T03:56:25.190Z,10.81
2023-03-24T03:59:22.239Z,10.78
2023-03-24T04:01:48.887Z,10.75
2023-03-24T04:04:35.539Z,10.70
2023-03-24T04:07:39.090Z,10.68
2023-03-24T04:10:51.077Z,10.67
2023-03-24T04:13:30.311Z,10.66
2023-03-24T04:16:17.103Z,10.64
2023-03-24T04:19:07.125Z,10.61
2023-03-24T04:21:51.977Z,10.58
2023-03-24T04:24:28.286Z,10.57
2023-03-24T04:27:06.346Z,10.55
2023-03-24T04:29:38.431Z,10.55
2023-03-24T04:32:04.820Z,10.57
2023-03-24T04:34:31.306Z,10.59
2023-03-24T04:37:14.289Z,10.61
2023-03-24T04:40:00.962Z,10.63
2023-03-24T04:42:32.071Z,10.64
2023-03-24T04:44:59.195Z,10.64
2023-03-24T04:47:57.695Z,10.65
2023-03-24T04:50:30.962Z,10.64
2023-03-24T04:52:58.705Z,10.64
2023-03-24T04:55:46.788Z,10.64
2023-03-24T04:58:13.222Z,10.64
2023-03-24T05:00:40.904Z,10.63
2023-03-24T05:03:07.327Z,10.63
2023-03-24T05:05:33.981Z,10.63
2023-03-24T05:08:00.468Z,10.65
2023-03-24T05:10:27.859Z,10.65
2023-03-24T05:12:55.123Z,10.66
2023-03-24T05:15:43.502Z,10.67
2023-03-24T05:18:24.623Z,10.68
2023-03-24T05:20:50.966Z,10.69
2023-03-24T05:23:19.791Z,10.71
2023-03-24T05:25:47.171Z,10.72
2023-03-24T05:28:14.408Z,10.73
2023-03-24T05:30:40.775Z,10.76
2023-03-24T05:33:18.271Z,10.78
2023-03-24T05:35:44.856Z,10.78
2023-03-24T05:38:11.356Z,10.81
2023-03-24T05:40:39.350Z,10.84
2023-03-24T05:43:11.314Z,10.88
2023-03-24T05:45:40.957Z,10.92
2023-03-24T05:48:07.546Z,10.98
2023-03-24T05:51:03.259Z,11.03
2023-03-24T05:53:29.573Z,11.06
2023-03-24T05:56:09.067Z,11.13
2023-03-24T05:58:55.695Z,11.19
2023-03-24T06:01:22.748Z,11.26
2023-03-24T06:03:52.637Z,11.33
2023-03-24T06:06:19.093Z,11.39
2023-03-24T06:08:45.993Z,11.44
2023-03-24T06:11:13.063Z,11.51
2023-03-24T06:13:47.489Z,11.57
2023-03-24T06:16:13.870Z,11.63
2023-03-24T06:18:52.675Z,11.70
2023-03-24T06:21:39.089Z,11.80
2023-03-24T06:24:05.634Z,11.91
2023-03-24T06:26:32.624Z,12.02
2023-03-24T06:28:59.680Z,12.15
2023-03-24T06:31:29.885Z,12.32
2023-03-24T06:33:56.199Z,12.48
2023-03-24T06:36:22.571Z,12.66
2023-03-24T06:41:17.852Z,13.03
2023-03-24T06:43:44.546Z,13.22
2023-03-24T06:46:11.301Z,13.38
2023-03-24T06:48:39.601Z,13.49
2023-03-24T06:51:07.093Z,13.63
2023-03-24T06:53:33.813Z,13.75
2023-03-24T06:56:00.248Z,13.85
2023-03-24T06:58:29.296Z,13.95
2023-03-24T07:01:04.410Z,14.04
2023-03-24T07:03:49.386Z,14.15
2023-03-24T07:06:16.851Z,14.27
2023-03-24T07:08:43.582Z,14.37
2023-03-24T07:11:10.354Z,14.46
2023-03-24T07:13:38.557Z,14.55
2023-03-24T07:16:05.097Z,14.62
2023-03-24T07:18:32.573Z,14.65
2023-03-24T07:21:03.125Z,14.70
2023-03-24T07:23:29.966Z,14.77
2023-03-24T07:26:00.440Z,14.86
2023-03-24T07:28:35.774Z,14.96
2023-03-24T07:31:05.529Z,15.06
2023-03-24T07:33:32.335Z,15.14
2023-03-24T07:35:58.718Z,15.17
2023-03-24T07:38:25.602Z,15.11
2023-03-24T07:40:54.020Z,15.02
2023-03-24T07:43:20.663Z,14.93
2023-03-24T07:46:15.908Z,14.82
2023-03-24T07:48:42.339Z,14.78
2023-03-24T07:51:09.144Z,14.78
2023-03-24T07:53:50.225Z,14.81
2023-03-24T07:56:35.081Z,14.84
2023-03-24T07:59:01.823Z,14.84
2023-03-24T08:01:31.486Z,14.86
2023-03-24T08:04:01.034Z,14.90
2023-03-24T08:06:57.305Z,14.97
2023-03-24T08:09:23.768Z,15.06
2023-03-24T08:11:50.089Z,15.17
2023-03-24T08:14:16.591Z,15.27
2023-03-24T08:16:42.899Z,15.35
2023-03-24T08:19:10.846Z,15.42
2023-03-24T08:21:37.228Z,15.50
2023-03-24T08:24:03.595Z,15.61
2023-03-24T08:26:29.939Z,15.72
2023-03-24T08:28:56.304Z,15.83
2023-03-24T08:31:22.772Z,15.96
2023-03-24T08:33:49.225Z,16.10
2023-03-24T08:36:15.867Z,16.27
2023-03-24T08:38:42.197Z,16.39
2023-03-24T08:41:08.638Z,16.51
2023-03-24T08:43:35.506Z,16.69
2023-03-24T08:46:02.263Z,16.85
2023-03-24T08:48:29.372Z,16.98
2023-03-24T08:50:57.299Z,17.10
2023-03-24T08:53:23.747Z,17.24
2023-03-24T08:55:50.236Z,17.50
2023-03-24T08:58:18.119Z,17.74
2023-03-24T09:00:44.987Z,18.09
2023-03-24T09:03:33.033Z,18.40
2023-03-24T09:06:02.743Z,18.81
2023-03-24T09:08:29.313Z,19.17
2023-03-24T09:11:07.280Z,19.41
2023-03-24T09:13:33.990Z,19.62
2023-03-24T09:16:01.362Z,19.81
2023-03-24T09:18:28.764Z,19.96
2023-03-24T09:21:00.862Z,20.01
2023-03-24T09:23:28.858Z,20.02
2023-03-24T09:25:55.259Z,20.04
2023-03-24T09:28:21.872Z,20.08
2023-03-24T09:30:49.291Z,20.07
2023-03-24T09:33:15.966Z,20.02
2023-03-24T09:35:42.402Z,20.02
2023-03-24T09:38:08.757Z,20.06
2023-03-24T09:40:36.392Z,20.17
2023-03-24T09:43:04.796Z,20.25
2023-03-24T09:45:33.382Z,20.26
2023-03-24T09:48:02.544Z,20.36
2023-03-24T09:50:41.252Z,20.61
2023-03-24T09:53:26.195Z,20.93
2023-03-24T09:55:52.627Z,21.15
2023-03-24T09:58:19.461Z,21.35
2023-03-24T10:00:46.367Z,21.50
2023-03-24T10:03:22.804Z,21.64
2023-03-24T10:05:53.493Z,21.83
2023-03-24T10:08:36.520Z,22.11
2023-03-24T10:11:06.862Z,22.21
2023-03-24T10:13:47.401Z,22.37
2023-03-24T10:16:25.615Z,22.69
2023-03-24T10:18:58.697Z,23.08
2023-03-24T10:21:25.935Z,23.36
2023-03-24T10:24:11.235Z,23.57
2023-03-24T10:26:56.313Z,23.74
2023-03-24T10:29:26.060Z,23.78
2023-03-24T10:31:56.914Z,23.63
2023-03-24T10:34:26.532Z,23.60
2023-03-24T10:36:53.210Z,23.79
2023-03-24T10:39:22.675Z,24.06
2023-03-24T10:41:53.552Z,24.46
2023-03-24T10:44:20.549Z,24.58
2023-03-24T10:46:50.177Z,24.31
2023-03-24T10:49:18.676Z,24.03
2023-03-24T10:51:46.820Z,23.85
2023-03-24T10:54:20.559Z,23.87
2023-03-24T10:57:07.356Z,23.77
2023-03-24T10:59:45.027Z,23.48
2023-03-24T11:02:25.616Z,23.44
2023-03-24T11:04:56.997Z,23.67
2023-03-24T11:07:34.852Z,23.90
2023-03-24T11:10:04.953Z,24.11
2023-03-24T11:12:32.947Z,24.13
2023-03-24T11:15:21.137Z,23.99
2023-03-24T11:17:54.834Z,23.47
2023-03-24T11:20:29.210Z,23.14
2023-03-24T11:22:56.793Z,22.82
2023-03-24T11:25:36.611Z,22.64
2023-03-24T11:28:15.509Z,22.48
2023-03-24T11:30:49.523Z,22.51
2023-03-24T11:33:34.829Z,22.66
2023-03-24T11:36:08.366Z,22.75
2023-03-24T11:38:35.198Z,23.00
2023-03-24T11:41:02.206Z,23.34
2023-03-24T11:43:28.564Z,23.73
2023-03-24T11:46:16.717Z,24.11
2023-03-24T11:48:43.208Z,24.41
2023-03-24T11:51:09.611Z,24.45
2023-03-24T11:53:43.973Z,24.41
2023-03-24T11:56:16.709Z,24.72
2023-03-24T11:58:42.963Z,25.01
2023-03-24T12:01:16.109Z,25.19
2023-03-24T12:03:42.684Z,25.32
2023-03-24T12:06:24.472Z,25.35
2023-03-24T12:09:06.362Z,25.38
2023-03-24T12:11:39.092Z,25.31
2023-03-24T12:14:05.757Z,25.16
2023-03-24T12:16:40.302Z,25.25
2023-03-24T12:19:16.261Z,25.46
2023-03-24T12:22:01.647Z,25.57
2023-03-24T12:24:28.124Z,25.88
2023-03-24T12:26:59.323Z,26.03
2023-03-24T12:29:26.061Z,25.93
2023-03-24T12:31:55.471Z,25.68
2023-03-24T12:34:40.520Z,25.53
2023-03-24T12:37:13.399Z,25.26
2023-03-24T12:39:52.242Z,25.14
2023-03-24T12:42:20.002Z,25.22
2023-03-24T12:45:02.355Z,25.02
2023-03-24T12:47:31.561Z,24.71
2023-03-24T12:50:00.673Z,24.40
2023-03-24T12:52:39.214Z,24.40
2023-03-24T12:55:09.162Z,24.41
2023-03-24T12:57:48.325Z,24.25
2023-03-24T13:00:19.191Z,23.96
2023-03-24T13:02:49.365Z,23.70
2023-03-24T13:05:21.016Z,23.48
2023-03-24T13:07:48.648Z,23.24
2023-03-24T13:10:15.280Z,22.91
2023-03-24T13:12:47.908Z,22.63
2023-03-24T13:15:31.172Z,22.42
2023-03-24T13:17:57.648Z,22.22
2023-03-24T13:20:35.382Z,22.14
2023-03-24T13:23:22.016Z,22.00
2023-03-24T13:25:51.995Z,21.92
2023-03-24T13:28:24.475Z,21.87
2023-03-24T13:30:51.276Z,21.73
2023-03-24T13:33:21.262Z,21.60
2023-03-24T13:36:03.072Z,21.36
2023-03-24T13:39:02.231Z,21.13
2023-03-24T13:41:31.444Z,20.90
2023-03-24T13:43:57.744Z,20.78
2023-03-24T13:46:24.283Z,20.58
2023-03-24T13:48:53.354Z,20.38
2023-03-24T13:51:19.901Z,20.19
2023-03-24T13:54:00.927Z,20.06
2023-03-24T13:56:35.164Z,20.02
2023-03-24T13:59:01.891Z,19.98
2023-03-24T14:01:38.845Z,19.91
2023-03-24T14:04:14.662Z,19.79
2023-03-24T14:06:44.800Z,19.66
2023-03-24T14:09:19.606Z,19.59
2023-03-24T14:12:08.508Z,19.50
2023-03-24T14:14:36.362Z,19.43
2023-03-24T14:17:05.769Z,19.36
2023-03-24T14:19:36.530Z,19.29
2023-03-24T14:22:08.891Z,19.16
2023-03-24T14:24:35.809Z,19.01
2023-03-24T14:27:20.551Z,18.89
2023-03-24T14:29:48.701Z,18.78
2023-03-24T14:32:20.142Z,18.72
2023-03-24T14:34:51.153Z,18.70
2023-03-24T14:37:17.744Z,18.68
2023-03-24T14:39:45.972Z,18.66
2023-03-24T14:42:31.252Z,18.64
2023-03-24T14:44:58.882Z,18.60
2023-03-24T14:47:29.171Z,18.55
2023-03-24T14:49:57.080Z,18.61
2023-03-24T14:52:29.804Z,18.70
2023-03-24T14:55:01.642Z,18.84
2023-03-24T14:57:34.022Z,18.92
2023-03-24T15:00:00.357Z,19.02
2023-03-24T15:02:27.230Z,19.10
2023-03-24T15:05:13.060Z,19.16
2023-03-24T15:07:40.630Z,19.16
2023-03-24T15:10:13.249Z,19.11
2023-03-24T15:12:46.750Z,19.05
2023-03-24T15:15:18.208Z,19.02
2023-03-24T15:17:44.973Z,18.93
2023-03-24T15:20:26.915Z,18.85
2023-03-24T15:22:53.668Z,18.76
2023-03-24T15:25:26.437Z,18.65
2023-03-24T15:27:53.311Z,18.50
2023-03-24T15:30:20.470Z,18.36
2023-03-24T15:32:46.962Z,18.18
2023-03-24T15:35:14.942Z,18.00
2023-03-24T15:37:42.619Z,17.85
2023-03-24T15:40:27.954Z,17.72
2023-03-24T15:42:55.438Z,17.57
2023-03-24T15:45:24.903Z,17.44
2023-03-24T15:47:52.800Z,17.33
2023-03-24T15:50:31.041Z,17.22
2023-03-24T15:52:58.288Z,17.10
2023-03-24T15:55:30.699Z,16.99
2023-03-24T15:57:58.658Z,16.92
2023-03-24T16:00:30.945Z,16.85
2023-03-24T16:03:00.856Z,16.76
2023-03-24T16:05:29.036Z,16.66
2023-03-24T16:08:00.367Z,16.57
2023-03-24T16:10:29.641Z,16.49
2023-03-24T16:12:55.978Z,16.36
2023-03-24T16:15:22.366Z,16.25
2023-03-24T16:17:49.450Z,16.11
2023-03-24T16:20:19.601Z,15.99
2023-03-24T16:22:45.900Z,15.84
2023-03-24T16:25:13.335Z,15.71
2023-03-24T16:27:39.624Z,15.56
2023-03-24T16:30:21.738Z,15.42
2023-03-24T16:32:48.251Z,15.22
2023-03-24T16:35:14.650Z,15.04
2023-03-24T16:37:41.078Z,14.88
2023-03-24T16:40:31.036Z,14.73
2023-03-24T16:42:57.376Z,14.58
2023-03-24T16:45:23.817Z,14.46
2023-03-24T16:47:50.282Z,14.37
2023-03-24T16:50:23.405Z,14.28
2023-03-24T16:52:49.929Z,14.19
2023-03-24T16:55:16.201Z,14.13
2023-03-24T16:57:42.996Z,14.02
2023-03-24T17:00:09.649Z,13.94
2023-03-24T17:02:36.591Z,13.89
2023-03-24T17:05:29.392Z,13.84
2023-03-24T17:07:57.114Z,13.80
2023-03-24T17:10:24.195Z,13.73
2023-03-24T17:12:52.178Z,13.71
2023-03-24T17:15:21.594Z,13.72
2023-03-24T17:17:48.114Z,13.71
2023-03-24T17:20:15.089Z,13.70
2023-03-24T17:22:42.384Z,13.71
2023-03-24T17:25:10.033Z,13.73
2023-03-24T17:27:36.450Z,13.75
2023-03-24T17:30:03.499Z,13.75
2023-03-24T17:32:30.520Z,13.74
2023-03-24T17:34:57.432Z,13.71
2023-03-24T17:37:26.589Z,13.68
2023-03-24T17:39:53.442Z,13.65
2023-03-24T17:42:19.867Z,13.62
2023-03-24T17:44:46.203Z,13.59
2023-03-24T17:47:12.605Z,13.55
2023-03-24T17:49:39.716Z,13.52
2023-03-24T17:52:06.150Z,13.48
2023-03-24T17:54:32.800Z,13.45
2023-03-24T17:56:59.496Z,13.43
2023-03-24T17:59:25.938Z,13.40
2023-03-24T18:01:52.343Z,13.39
2023-03-24T18:04:18.911Z,13.39
2023-03-24T18:06:45.260Z,13.36
2023-03-24T18:09:11.734Z,13.34
2023-03-24T18:11:39.382Z,13.31
2023-03-24T18:14:05.858Z,13.25
2023-03-24T18:16:32.234Z,13.20
2023-03-24T18:18:58.924Z,13.16
2023-03-24T18:21:25.409Z,13.11
2023-03-24T18:23:51.842Z,13.07
2023-03-24T18:26:18.820Z,13.03
2023-03-24T18:28:45.282Z,12.99
2023-03-24T18:31:12.946Z,12.95
2023-03-24T18:33:39.263Z,12.91
2023-03-24T18:36:05.817Z,12.87
2023-03-24T18:38:32.189Z,12.84
2023-03-24T18:40:59.508Z,12.83
2023-03-24T18:43:25.997Z,12.81
2023-03-24T18:45:53.025Z,12.80
2023-03-24T18:48:19.783Z,12.78
2023-03-24T18:50:46.317Z,12.77
2023-03-24T18:53:12.868Z,12.75
2023-03-24T18:55:46.561Z,12.74
2023-03-24T18:58:13.960Z,12.74
2023-03-24T19:00:48.845Z,12.71
2023-03-24T19:03:15.900Z,12.68
2023-03-24T19:05:42.433Z,12.64
2023-03-24T19:08:08.806Z,12.57
2023-03-24T19:10:36.032Z,12.52
2023-03-24T19:13:03.179Z,12.46
2023-03-24T19:15:30.625Z,12.42
2023-03-24T19:17:58.982Z,12.39
2023-03-24T19:20:26.170Z,12.37
2023-03-24T19:22:53.204Z,12.34
2023-03-24T19:25:20.187Z,12.33
2023-03-24T19:27:46.897Z,12.32
2023-03-24T19:30:13.530Z,12.28
2023-03-24T19:32:40.271Z,12.25
2023-03-24T19:35:07.040Z,12.21
2023-03-24T19:37:33.402Z,12.19
2023-03-24T19:40:00.240Z,12.18
2023-03-24T19:42:26.750Z,12.16
2023-03-24T19:44:53.160Z,12.15
2023-03-24T19:47:19.699Z,12.14
2023-03-24T19:49:46.054Z,12.16
2023-03-24T19:52:13.642Z,12.17
2023-03-24T19:54:41.022Z,12.16
2023-03-24T19:57:07.441Z,12.17
2023-03-24T19:59:33.940Z,12.17
2023-03-24T20:02:00.309Z,12.17
2023-03-24T20:04:26.678Z,12.14
2023-03-24T20:06:53.058Z,12.14
2023-03-24T20:09:19.459Z,12.15
2023-03-24T20:11:45.817Z,12.17
2023-03-24T20:14:12.213Z,12.17
2023-03-24T20:16:39.466Z,12.16
2023-03-24T20:19:05.984Z,12.14
2023-03-24T20:21:34.808Z,12.15
2023-03-24T20:24:01.144Z,12.17
2023-03-24T20:26:27.674Z,12.18
2023-03-24T20:28:54.275Z,12.20
2023-03-24T20:31:20.593Z,12.22
2023-03-24T20:33:46.955Z,12.21
2023-03-24T20:36:13.331Z,12.21
2023-03-24T20:38:39.750Z,12.21
2023-03-24T20:41:06.549Z,12.19
2023-03-24T20:43:34.701Z,12.17
2023-03-24T20:46:01.553Z,12.15
2023-03-24T20:48:27.944Z,12.13
2023-03-24T20:50:56.638Z,12.10
2023-03-24T20:53:23.011Z,12.08
2023-03-24T20:56:15.773Z,12.08
2023-03-24T20:58:43.271Z,12.07
2023-03-24T21:01:13.799Z,12.06
2023-03-24T21:03:40.086Z,12.07
2023-03-24T21:06:07.474Z,12.08
2023-03-24T21:08:33.818Z,12.09
2023-03-24T21:11:00.843Z,12.08
2023-03-24T21:13:36.930Z,12.08
2023-03-24T21:16:07.408Z,12.07
2023-03-24T21:18:35.600Z,12.10
2023-03-24T21:21:02.001Z,12.11
2023-03-24T21:23:29.323Z,12.13
2023-03-24T21:25:55.704Z,12.16
2023-03-24T21:28:22.049Z,12.16
2023-03-24T21:30:48.414Z,12.13
2023-03-24T21:33:14.845Z,12.08
2023-03-24T21:35:42.919Z,12.06
2023-03-24T21:38:09.439Z,12.05
2023-03-24T21:40:35.793Z,12.05
2023-03-24T21:43:02.256Z,12.04
2023-03-24T21:45:28.517Z,12.06
2023-03-24T21:47:55.505Z,12.07
2023-03-24T21:50:22.336Z,12.09
2023-03-24T21:52:53.199Z,12.11
2023-03-24T21:55:20.461Z,12.11
2023-03-24T21:57:47.665Z,12.13
2023-03-24T22:00:15.960Z,12.12
2023-03-24T22:02:43.615Z,12.13
2023-03-24T22:05:13.386Z,12.13
2023-03-24T22:07:40.747Z,12.16
2023-03-24T22:10:08.045Z,12.17
2023-03-24T22:12:34.908Z,12.18
2023-03-24T22:15:01.625Z,12.18
2023-03-24T22:17:28.741Z,12.18
2023-03-24T22:19:55.079Z,12.16
2023-03-24T22:22:21.475Z,12.12
2023-03-24T22:24:47.810Z,12.10
2023-03-24T22:27:14.125Z,12.08
2023-03-24T22:29:40.447Z,12.06
2023-03-24T22:32:06.871Z,12.04
2023-03-24T22:34:33.176Z,12.00
2023-03-24T22:36:59.455Z,11.96
2023-03-24T22:39:25.782Z,11.90
2023-03-24T22:41:52.156Z,11.87
2023-03-24T22:44:18.491Z,11.86
2023-03-24T22:46:44.811Z,11.85
2023-03-24T22:49:11.095Z,11.85
2023-03-24T22:51:37.419Z,11.86
2023-03-24T22:54:03.765Z,11.89
2023-03-24T22:56:30.091Z,11.91
2023-03-24T22:58:56.503Z,11.93
2023-03-24T23:01:22.960Z,11.95
2023-03-24T23:03:51.382Z,11.95
2023-03-24T23:06:17.683Z,11.94
2023-03-24T23:08:44.129Z,11.93
2023-03-24T23:11:10.971Z,11.91
2023-03-24T23:13:37.243Z,11.89
2023-03-24T23:16:04.670Z,11.87
2023-03-24T23:18:31.162Z,11.86
2023-03-24T23:21:04.942Z,11.85
2023-03-24T23:23:31.466Z,11.83
2023-03-24T23:25:57.780Z,11.81
2023-03-24T23:28:24.255Z,11.76
2023-03-24T23:30:51.143Z,11.70
2023-03-24T23:33:17.468Z,11.65
2023-03-24T23:35:43.990Z,11.61
2023-03-24T23:38:10.541Z,11.57
2023-03-24T23:40:36.918Z,11.53
2023-03-24T23:43:03.248Z,11.51
2023-03-24T23:45:29.682Z,11.51
2023-03-24T23:47:56.317Z,11.50
2023-03-24T23:50:22.901Z,11.48
2023-03-24T23:52:49.280Z,11.45
2023-03-24T23:55:16.362Z,11.42
2023-03-24T23:57:43.216Z,11.39
